createdAt,value
2022-10-03T00:00:34.072Z,86.27
2022-10-03T00:10:55.070Z,87.23
2022-10-03T00:21:18.188Z,84.47
2022-10-03T00:31:26.857Z,87.33
2022-10-03T00:42:14.979Z,84.63
2022-10-03T00:52:34.776Z,90.47
2022-10-03T01:03:25.336Z,87.37
2022-10-03T01:13:43.085Z,85.60
2022-10-03T01:24:38.318Z,85.43
2022-10-03T01:34:48.550Z,84.00
2022-10-03T01:45:13.314Z,87.47
2022-10-03T01:55:24.857Z,90.60
2022-10-03T02:05:42.958Z,89.13
2022-10-03T02:15:59.018Z,89.47
2022-10-03T02:26:30.179Z,87.70
2022-10-03T02:37:27.904Z,85.03
2022-10-03T02:48:33.565Z,90.43
2022-10-03T02:59:28.769Z,88.07
2022-10-03T03:10:23.077Z,89.80
2022-10-03T03:20:58.369Z,86.97
2022-10-03T03:31:11.477Z,86.90
2022-10-03T03:41:49.222Z,85.47
2022-10-03T03:52:06.778Z,90.80
2022-10-03T04:02:27.895Z,87.13
2022-10-03T04:12:53.976Z,91.23
2022-10-03T04:23:18.593Z,89.37
2022-10-03T04:33:38.730Z,90.70
2022-10-03T04:43:52.530Z,91.83
2022-10-03T04:54:02.364Z,87.80
2022-10-03T05:04:17.769Z,89.57
2022-10-03T05:14:34.138Z,90.23
2022-10-03T05:24:48.510Z,85.80
2022-10-03T05:35:29.473Z,88.23
2022-10-03T05:45:49.685Z,86.87
2022-10-03T05:56:08.336Z,88.97
2022-10-03T06:06:22.686Z,88.03
2022-10-03T06:16:35.130Z,91.63
2022-10-03T06:27:23.761Z,89.33
2022-10-03T06:38:23.653Z,90.73
2022-10-03T06:49:15.673Z,90.13
2022-10-03T07:00:10.056Z,88.10
2022-10-03T07:10:44.183Z,94.20
2022-10-03T07:21:20.951Z,87.00
2022-10-03T07:31:40.348Z,89.20
2022-10-03T07:42:13.178Z,91.03
2022-10-03T07:52:54.244Z,92.97
2022-10-03T08:03:50.327Z,89.40
2022-10-03T08:14:11.553Z,88.23
2022-10-03T08:24:34.882Z,86.70
2022-10-03T08:35:18.842Z,101.60
2022-10-03T08:46:04.637Z,96.00
2022-10-03T08:56:13.510Z,87.07
2022-10-03T09:07:15.819Z,88.53
2022-10-03T09:17:49.355Z,89.17
2022-10-03T09:28:33.358Z,88.63
2022-10-03T09:39:22.581Z,104.20
2022-10-03T09:50:36.692Z,87.47
2022-10-03T10:01:08.504Z,92.10
2022-10-03T10:11:23.343Z,88.93
2022-10-03T10:22:02.786Z,90.10
2022-10-03T10:33:05.752Z,88.60
2022-10-03T10:44:11.327Z,88.57
2022-10-03T10:55:26.152Z,86.90
2022-10-03T11:06:12.838Z,91.40
2022-10-03T11:17:12.609Z,87.33
2022-10-03T11:28:18.848Z,89.87
2022-10-03T11:38:26.518Z,87.70
2022-10-03T11:48:41.064Z,85.27
2022-10-03T11:59:08.445Z,89.83
2022-10-03T12:09:20.361Z,86.13
2022-10-03T12:19:31.996Z,89.90
2022-10-03T12:29:40.185Z,86.43
2022-10-03T12:40:02.098Z,84.87
2022-10-03T12:50:19.435Z,85.20
2022-10-03T13:00:28.209Z,90.10
2022-10-03T13:10:42.447Z,104.10
2022-10-03T13:20:57.235Z,90.73
2022-10-03T13:31:09.801Z,86.53
2022-10-03T13:41:29.911Z,89.37
2022-10-03T13:51:44.609Z,91.20
2022-10-03T14:02:00.437Z,93.03
2022-10-03T14:12:24.806Z,89.23
2022-10-03T14:23:03.378Z,97.77
2022-10-03T14:33:21.937Z,103.23
2022-10-03T14:43:38.462Z,106.57
2022-10-03T14:53:49.125Z,107.80
2022-10-03T15:04:06.456Z,109.23
2022-10-03T15:14:11.520Z,105.20
2022-10-03T15:24:25.678Z,110.17
2022-10-03T15:34:33.656Z,102.87
2022-10-03T15:44:40.573Z,100.30
2022-10-03T15:54:49.881Z,110.50
2022-10-03T16:04:57.253Z,103.43
2022-10-03T16:15:17.488Z,108.57
2022-10-03T16:25:26.563Z,107.00
2022-10-03T16:35:37.912Z,104.73
2022-10-03T16:45:47.808Z,108.80
2022-10-03T16:55:59.335Z,105.27
2022-10-03T17:06:09.379Z,89.07
2022-10-03T17:16:18.009Z,89.00
2022-10-03T17:26:29.703Z,89.17
2022-10-03T17:37:15.382Z,89.73
2022-10-03T17:47:26.220Z,90.17
2022-10-03T17:57:36.962Z,103.07
2022-10-03T18:07:44.246Z,85.73
2022-10-03T18:18:05.614Z,88.10
2022-10-03T18:28:19.494Z,88.87
2022-10-03T18:38:26.032Z,89.23
2022-10-03T18:48:39.770Z,110.20
2022-10-03T18:58:46.573Z,106.27
2022-10-03T19:08:55.375Z,105.40
2022-10-03T19:19:07.301Z,98.83
2022-10-03T19:29:15.734Z,103.93
2022-10-03T19:39:20.551Z,102.10
2022-10-03T19:49:33.093Z,94.63
2022-10-03T19:59:46.554Z,98.13
2022-10-03T20:10:01.555Z,100.03
2022-10-03T20:20:09.632Z,87.83
2022-10-03T20:30:26.283Z,87.57
2022-10-03T20:40:35.923Z,89.57
2022-10-03T20:50:46.347Z,89.67
2022-10-03T21:00:54.005Z,89.10
2022-10-03T21:11:00.922Z,88.80
2022-10-03T21:21:09.482Z,89.87
2022-10-03T21:31:39.858Z,88.30
2022-10-03T21:42:01.864Z,89.03
2022-10-03T21:52:48.063Z,89.23
2022-10-03T22:03:03.023Z,87.73
2022-10-03T22:13:10.465Z,89.80
2022-10-03T22:23:27.501Z,88.60
2022-10-03T22:33:46.838Z,89.80
2022-10-03T22:43:51.298Z,90.20
2022-10-03T22:54:04.017Z,88.47
2022-10-03T23:04:15.546Z,91.50
2022-10-03T23:14:26.050Z,88.27
2022-10-03T23:24:35.969Z,90.03
2022-10-03T23:35:09.175Z,89.50
2022-10-03T23:45:16.758Z,87.37
2022-10-03T23:55:25.920Z,88.13
